Time;durP1;ratioP1;P1;durP2;ratioP2;P2;SDS_P1;SDS_P2;PMS_P1;PMS_P2;Temp;Humidity;BMP_temperature;BMP_pressure;BME280_temperature;BME280_humidity;BME280_pressure;Samples;Min_cycle;Max_cycle;Signal;HPM_P1;HPM_P2
2023/01/30 00:00:02;;;;;;;10.18;7.15;;;15.30;74.60;;;;;;4175401;28;20857;-65
2023/01/30 00:02:44;;;;;;;14.40;7.70;;;15.30;74.60;;;;;;4175576;28;20048;-65
2023/01/30 00:05:27;;;;;;;13.02;6.80;;;15.30;74.20;;;;;;4175558;28;20063;-65
2023/01/30 00:08:07;;;;;;;10.88;6.68;;;15.30;75.10;;;;;;4172433;28;20055;-65
2023/01/30 00:10:49;;;;;;;10.05;6.30;;;15.30;74.10;;;;;;4182390;28;20494;-64
2023/01/30 00:13:30;;;;;;;12.52;7.30;;;15.30;74.20;;;;;;4193112;28;20060;-65
2023/01/30 00:16:11;;;;;;;10.45;6.07;;;15.30;74.30;;;;;;4193856;28;20818;-65
2023/01/30 00:18:52;;;;;;;11.57;7.00;;;15.40;74.10;;;;;;4190247;28;20509;-65
2023/01/30 00:21:34;;;;;;;9.82;5.90;;;15.50;73.80;;;;;;4194437;28;20051;-65
2023/01/30 00:24:15;;;;;;;12.18;5.70;;;15.50;73.60;;;;;;4194426;28;20075;-65
2023/01/30 00:26:56;;;;;;;10.23;5.60;;;15.50;73.60;;;;;;4186298;28;20059;-65
2023/01/30 00:29:37;;;;;;;8.40;4.35;;;15.60;73.10;;;;;;4194875;28;20486;-65
2023/01/30 00:32:18;;;;;;;10.48;5.85;;;15.70;72.90;;;;;;4193784;28;20043;-65
2023/01/30 00:34:59;;;;;;;12.90;5.00;;;15.70;72.80;;;;;;4194637;28;20067;-65
2023/01/30 00:37:42;;;;;;;10.40;5.28;;;15.70;73.80;;;;;;4194615;28;20286;-64
2023/01/30 00:40:23;;;;;;;9.85;5.35;;;15.70;72.70;;;;;;4193310;28;20141;-65
2023/01/30 00:49:06;;;;;;;8.05;5.43;;;15.90;71.80;;;;;;4189946;28;20121;-65
2023/01/30 00:51:47;;;;;;;5.60;4.50;;;15.90;71.70;;;;;;4177617;28;20044;-65
2023/01/30 00:54:30;;;;;;;6.65;4.70;;;15.90;71.80;;;;;;4177551;28;20055;-65
2023/01/30 00:57:11;;;;;;;6.13;4.30;;;15.90;71.60;;;;;;4177841;28;20044;-65
2023/01/30 00:59:53;;;;;;;6.13;4.70;;;15.90;71.70;;;;;;4183707;28;20057;-64
2023/01/30 01:02:34;;;;;;;;;;;15.90;71.80;;;;;;4194947;28;20133;-65
2023/01/30 01:05:15;;;;;;;7.85;4.32;;;16.00;71.90;;;;;;4193888;28;20009;-64
2023/01/30 01:07:56;;;;;;;;;;;16.00;71.80;;;;;;4175344;28;20060;-65
2023/01/30 01:10:38;;;;;;;4.75;4.25;;;16.00;71.60;;;;;;4182428;28;19945;-65
2023/01/30 01:13:20;;;;;;;8.90;3.97;;;15.90;71.60;;;;;;4193804;28;20047;-65
2023/01/30 01:16:00;;;;;;;6.32;3.42;;;15.90;72.10;;;;;;4181137;28;20098;-64
2023/01/30 01:18:41;;;;;;;4.47;3.90;;;15.90;72.10;;;;;;4193811;28;20054;-65
2023/01/30 01:21:23;;;;;;;4.38;3.63;;;15.90;72.00;;;;;;4181422;28;20063;-65
2023/01/30 01:24:07;;;;;;;6.38;3.90;;;15.90;72.10;;;;;;4180345;28;20067;-65
2023/01/30 01:26:48;;;;;;;;;;;15.80;72.20;;;;;;4191229;28;20502;-65
2023/01/30 01:29:29;;;;;;;5.28;2.90;;;15.80;72.30;;;;;;4192649;28;19927;-65
2023/01/30 01:32:11;;;;;;;3.75;3.00;;;15.80;72.40;;;;;;4193937;28;20121;-65
2023/01/30 01:34:53;;;;;;;3.05;2.42;;;15.70;72.70;;;;;;4189327;28;20059;-65
2023/01/30 01:37:33;;;;;;;3.83;2.53;;;15.60;73.00;;;;;;4193295;28;20102;-65
2023/01/30 01:43:22;;;;;;;4.72;2.40;;;15.50;73.30;;;;;;4193399;28;20043;-65
2023/01/30 01:46:10;;;;;;;2.97;2.40;;;15.50;73.80;;;;;;4193542;28;20602;-65
2023/01/30 01:48:55;;;;;;;4.07;2.40;;;15.40;74.10;;;;;;4165580;28;20055;-65
2023/01/30 01:51:41;;;;;;;2.30;2.10;;;15.40;75.10;;;;;;4193682;28;20078;-65
2023/01/30 01:54:29;;;;;;;2.55;2.10;;;15.40;74.30;;;;;;4177394;28;20130;-65
2023/01/30 01:57:14;;;;;;;2.22;1.60;;;15.40;74.30;;;;;;4179143;28;20052;-65
2023/01/30 02:00:03;;;;;;;2.13;1.92;;;15.40;74.40;;;;;;4192936;28;20056;-65
2023/01/30 02:02:57;;;;;;;2.67;1.95;;;15.50;74.40;;;;;;4193036;28;20486;-65
2023/01/30 02:05:43;;;;;;;3.53;2.13;;;15.50;74.10;;;;;;4192682;28;20055;-65
2023/01/30 02:08:26;;;;;;;3.95;2.05;;;15.60;74.00;;;;;;4175937;28;20187;-65
2023/01/30 02:11:11;;;;;;;3.38;2.85;;;15.70;73.70;;;;;;4192737;28;20078;-65
2023/01/30 02:13:52;;;;;;;4.18;2.35;;;15.70;73.40;;;;;;4179145;28;20051;-65
2023/01/30 02:16:37;;;;;;;4.90;2.28;;;15.80;73.30;;;;;;4165131;28;20068;-65
2023/01/30 02:19:30;;;;;;;3.65;2.10;;;15.80;73.20;;;;;;4192703;28;20121;-65
2023/01/30 02:22:36;;;;;;;3.95;2.25;;;15.90;73.00;;;;;;4192802;28;20055;-65
2023/01/30 02:25:45;;;;;;;4.80;2.63;;;15.90;72.70;;;;;;4191203;28;20051;-65
2023/01/30 02:29:01;;;;;;;6.70;2.60;;;15.90;72.60;;;;;;4163439;28;20102;-65
2023/01/30 02:31:50;;;;;;;5.55;2.55;;;15.90;72.60;;;;;;4160543;28;20541;-65
2023/01/30 02:34:44;;;;;;;11.45;3.22;;;15.90;72.50;;;;;;4167603;28;20060;-65
2023/01/30 02:37:41;;;;;;;6.78;3.45;;;15.90;72.60;;;;;;4190339;28;20141;-65
2023/01/30 02:40:38;;;;;;;7.43;2.63;;;15.80;72.80;;;;;;4191486;28;20051;-65
2023/01/30 02:43:28;;;;;;;8.70;3.47;;;15.80;73.10;;;;;;4174749;28;20410;-65
2023/01/30 02:46:15;;;;;;;11.43;3.38;;;15.70;74.20;;;;;;4191600;28;20048;-65
2023/01/30 02:49:00;;;;;;;9.07;3.72;;;15.70;74.70;;;;;;4175472;28;20060;-65
2023/01/30 02:51:45;;;;;;;11.23;3.30;;;15.70;73.70;;;;;;4192679;28;20523;-65
2023/01/30 02:54:27;;;;;;;14.07;4.10;;;15.80;73.40;;;;;;4191424;28;20095;-65
2023/01/30 02:57:19;;;;;;;8.93;3.30;;;15.80;73.50;;;;;;4164405;28;20051;-65
2023/01/30 03:00:04;;;;;;;11.00;3.20;;;15.80;73.40;;;;;;4163036;28;20404;-65
2023/01/30 03:03:18;;;;;;;12.88;3.30;;;15.90;73.20;;;;;;4173581;28;20484;-65
2023/01/30 03:06:25;;;;;;;13.75;3.35;;;15.90;72.80;;;;;;4191665;28;20059;-65
2023/01/30 03:09:15;;;;;;;8.65;2.53;;;16.00;72.70;;;;;;4179793;28;20055;-65
2023/01/30 03:12:01;;;;;;;13.32;3.55;;;16.00;72.30;;;;;;4189559;28;20399;-65
2023/01/30 03:14:50;;;;;;;12.38;3.85;;;16.00;72.20;;;;;;4173055;28;20060;-65
2023/01/30 03:17:32;;;;;;;18.08;3.53;;;16.00;72.10;;;;;;4192351;28;20486;-65
2023/01/30 03:20:18;;;;;;;8.95;3.03;;;16.00;72.30;;;;;;4191192;28;20075;-65
2023/01/30 03:23:00;;;;;;;11.30;2.95;;;16.00;72.10;;;;;;4187434;28;20102;-65
2023/01/30 03:25:43;;;;;;;13.73;3.08;;;16.00;72.20;;;;;;4179021;28;20055;-65
2023/01/30 03:28:25;;;;;;;6.85;2.45;;;15.90;72.40;;;;;;4174924;28;20514;-65
2023/01/30 03:31:06;;;;;;;10.65;3.20;;;15.90;72.70;;;;;;4162791;28;20052;-65
2023/01/30 03:33:47;;;;;;;12.30;2.85;;;16.00;72.40;;;;;;4162373;28;20170;-65
2023/01/30 03:36:27;;;;;;;15.80;3.22;;;16.10;72.10;;;;;;4162468;28;20565;-65
2023/01/30 03:39:10;;;;;;;18.00;3.83;;;16.10;71.80;;;;;;4191629;28;20097;-65
2023/01/30 03:41:52;;;;;;;15.23;3.33;;;16.20;71.40;;;;;;4178976;28;20051;-65
2023/01/30 03:44:33;;;;;;;12.68;2.15;;;16.40;70.90;;;;;;4178924;28;20048;-65
2023/01/30 03:47:14;;;;;;;8.88;2.90;;;16.40;70.20;;;;;;4193524;28;20055;-65
2023/01/30 03:49:55;;;;;;;12.85;3.17;;;16.40;70.00;;;;;;4179952;28;20062;-65
2023/01/30 03:52:36;;;;;;;10.50;3.30;;;16.40;69.80;;;;;;4182955;28;20056;-65
2023/01/30 03:55:22;;;;;;;14.27;3.17;;;16.50;69.90;;;;;;4182204;28;20048;-65
2023/01/30 03:58:04;;;;;;;16.13;3.60;;;16.50;69.70;;;;;;4181737;28;20101;-65
2023/01/30 04:00:46;;;;;;;8.68;3.00;;;16.60;69.20;;;;;;4192080;28;20066;-65
2023/01/30 04:03:27;;;;;;;16.02;3.55;;;16.70;68.90;;;;;;4193951;28;20047;-65
2023/01/30 04:06:11;;;;;;;15.30;3.92;;;16.70;69.00;;;;;;4179530;28;20047;-65
2023/01/30 04:08:53;;;;;;;18.40;3.53;;;16.70;68.70;;;;;;4182481;28;20185;-65
2023/01/30 04:11:54;;;;;;;15.48;3.58;;;16.60;68.60;;;;;;4184506;28;20069;-65
2023/01/30 04:14:35;;;;;;;15.30;3.58;;;16.60;68.90;;;;;;4170943;28;20047;-65
2023/01/30 04:17:37;;;;;;;16.10;3.70;;;16.50;68.90;;;;;;4194389;28;20056;-65
2023/01/30 04:20:41;;;;;;;15.82;3.90;;;16.40;69.50;;;;;;4194875;28;20048;-65
2023/01/30 04:23:22;;;;;;;17.40;4.20;;;16.50;69.80;;;;;;4193789;28;20051;-65
2023/01/30 04:26:04;;;;;;;10.40;2.60;;;16.50;69.40;;;;;;4192611;28;20522;-66
2023/01/30 04:28:49;;;;;;;12.10;3.17;;;16.50;69.10;;;;;;4193749;28;20060;-65
2023/01/30 04:31:30;;;;;;;16.38;3.53;;;16.60;69.10;;;;;;4194585;28;20063;-65
2023/01/30 04:34:18;;;;;;;15.45;3.35;;;16.70;68.90;;;;;;4191932;28;20190;-65
2023/01/30 04:36:59;;;;;;;19.30;3.93;;;16.70;68.70;;;;;;4192918;28;20523;-65
2023/01/30 04:39:40;;;;;;;14.15;3.33;;;16.70;68.40;;;;;;4193089;28;20771;-66
2023/01/30 04:42:21;;;;;;;16.98;3.58;;;16.60;69.40;;;;;;4154819;28;20047;-65
2023/01/30 04:45:24;;;;;;;19.10;4.20;;;16.60;68.90;;;;;;4193928;28;20051;-65
2023/01/30 04:48:05;;;;;;;20.00;3.95;;;16.50;69.10;;;;;;4181497;28;20047;-65
2023/01/30 04:50:50;;;;;;;14.43;3.13;;;16.50;69.10;;;;;;4181179;28;20055;-65
2023/01/30 04:53:30;;;;;;;14.65;3.65;;;16.50;68.90;;;;;;4181610;28;20055;-65
2023/01/30 04:56:11;;;;;;;16.73;3.60;;;16.40;69.20;;;;;;4191787;28;20105;-65
2023/01/30 04:58:52;;;;;;;15.33;3.17;;;16.40;70.10;;;;;;4192551;28;20051;-65
2023/01/30 05:01:38;;;;;;;17.00;4.28;;;16.30;69.60;;;;;;4193135;28;20273;-65
2023/01/30 05:04:19;;;;;;;16.90;3.42;;;16.20;70.00;;;;;;4181620;28;20186;-65
2023/01/30 05:06:59;;;;;;;20.30;3.78;;;16.20;70.40;;;;;;4192910;28;20056;-65
2023/01/30 05:09:40;;;;;;;17.90;3.77;;;16.20;70.60;;;;;;4194187;28;20453;-65
2023/01/30 05:12:21;;;;;;;17.35;3.38;;;16.20;70.60;;;;;;4194377;28;20207;-66
2023/01/30 05:15:02;;;;;;;20.95;4.68;;;16.20;70.50;;;;;;4177287;28;20055;-66
2023/01/30 05:17:44;;;;;;;16.45;3.88;;;16.20;70.60;;;;;;4194088;28;20052;-66
2023/01/30 05:20:25;;;;;;;16.58;3.97;;;16.10;70.40;;;;;;4193035;28;20059;-65
2023/01/30 05:23:06;;;;;;;14.75;3.58;;;16.00;70.50;;;;;;4193895;28;20130;-65
2023/01/30 05:25:47;;;;;;;20.13;4.05;;;15.90;70.90;;;;;;4176886;28;20514;-65
2023/01/30 05:28:29;;;;;;;21.08;3.90;;;15.90;71.60;;;;;;4193480;28;20051;-65
2023/01/30 05:31:12;;;;;;;18.23;4.20;;;15.90;72.10;;;;;;4193560;28;20097;-65
2023/01/30 05:33:54;;;;;;;19.15;4.50;;;16.00;72.00;;;;;;4178533;28;20048;-65
2023/01/30 05:36:35;;;;;;;23.65;4.28;;;16.10;71.80;;;;;;4178114;28;20055;-65
2023/01/30 05:39:16;;;;;;;13.23;3.10;;;16.20;71.20;;;;;;4191749;28;20133;-66
2023/01/30 05:41:57;;;;;;;13.00;3.60;;;16.20;71.00;;;;;;4192731;28;20051;-65
2023/01/30 05:44:38;;;;;;;16.42;3.30;;;16.30;70.30;;;;;;4176963;28;20095;-66
2023/01/30 05:47:19;;;;;;;22.63;4.38;;;16.20;69.90;;;;;;4177358;28;20126;-65
2023/01/30 05:50:01;;;;;;;21.17;3.83;;;16.20;70.30;;;;;;4193428;28;20089;-65
2023/01/30 05:52:43;;;;;;;20.17;3.83;;;16.20;70.70;;;;;;4188993;28;20150;-65
2023/01/30 05:55:24;;;;;;;16.20;4.10;;;16.30;70.60;;;;;;4178094;28;20195;-65
2023/01/30 05:58:05;;;;;;;19.55;4.45;;;16.30;70.60;;;;;;4193071;28;20111;-65
2023/01/30 06:00:46;;;;;;;16.75;4.03;;;16.30;70.50;;;;;;4192940;28;20102;-65
2023/01/30 06:03:27;;;;;;;20.13;4.22;;;16.30;70.50;;;;;;4154118;28;20071;-65
2023/01/30 06:06:11;;;;;;;22.17;4.20;;;16.30;70.30;;;;;;4193376;28;20093;-65
2023/01/30 06:08:54;;;;;;;15.85;3.90;;;16.30;70.20;;;;;;4176337;28;20056;-65
2023/01/30 06:11:34;;;;;;;17.77;4.30;;;16.30;70.30;;;;;;4192713;28;20060;-65
2023/01/30 06:14:16;;;;;;;21.23;3.60;;;16.20;70.20;;;;;;4193436;28;20118;-65
2023/01/30 06:16:57;;;;;;;16.50;3.47;;;16.10;71.30;;;;;;4193225;28;20115;-65
2023/01/30 06:19:38;;;;;;;12.93;2.95;;;16.00;70.70;;;;;;4188428;28;20565;-65
2023/01/30 06:22:20;;;;;;;15.20;3.60;;;16.00;71.10;;;;;;4180317;28;20047;-65
2023/01/30 06:25:01;;;;;;;18.77;3.83;;;16.00;71.70;;;;;;4192510;28;20194;-65
2023/01/30 06:27:43;;;;;;;19.33;3.28;;;16.00;71.50;;;;;;4176578;28;20408;-65
2023/01/30 06:30:24;;;;;;;12.88;4.03;;;16.10;71.20;;;;;;4177088;28;20068;-65
2023/01/30 06:33:05;;;;;;;17.20;4.00;;;16.20;71.20;;;;;;4192223;28;20057;-65
2023/01/30 06:35:49;;;;;;;16.30;3.72;;;16.20;70.90;;;;;;4192744;28;20117;-65
2023/01/30 06:38:31;;;;;;;16.02;4.03;;;16.20;70.40;;;;;;4188219;28;20066;-65
2023/01/30 06:41:11;;;;;;;18.73;4.32;;;16.20;70.40;;;;;;4192107;28;20137;-65
2023/01/30 06:43:52;;;;;;;21.20;4.10;;;16.20;70.80;;;;;;4176634;28;20203;-66
2023/01/30 06:46:33;;;;;;;10.90;2.70;;;16.20;70.50;;;;;;4176012;28;20044;-65
2023/01/30 06:49:14;;;;;;;20.48;3.97;;;16.30;70.50;;;;;;4175354;28;20051;-66
2023/01/30 06:51:55;;;;;;;18.48;3.63;;;16.30;70.30;;;;;;4175702;28;20052;-64
2023/01/30 06:54:37;;;;;;;17.67;4.47;;;16.30;70.30;;;;;;4176773;28;20126;-63
2023/01/30 06:57:19;;;;;;;18.42;3.67;;;16.40;70.50;;;;;;4191782;28;20129;-64
2023/01/30 07:00:00;;;;;;;17.30;3.75;;;16.40;70.00;;;;;;4192338;28;20100;-64
2023/01/30 07:02:41;;;;;;;18.50;3.85;;;16.50;69.60;;;;;;4175166;28;20052;-64
2023/01/30 07:05:22;;;;;;;24.70;4.00;;;16.50;69.40;;;;;;4175900;28;20056;-64
2023/01/30 07:08:03;;;;;;;16.17;4.18;;;16.40;70.10;;;;;;4175947;28;20043;-64
2023/01/30 07:10:45;;;;;;;15.60;3.95;;;16.50;69.20;;;;;;4175804;28;20055;-65
2023/01/30 07:13:26;;;;;;;22.65;4.43;;;16.50;69.00;;;;;;4160367;28;20067;-64
2023/01/30 07:16:08;;;;;;;22.42;4.28;;;16.60;69.00;;;;;;4160412;28;20047;-65
2023/01/30 07:18:49;;;;;;;20.70;4.38;;;16.60;68.80;;;;;;4160801;28;20194;-65
2023/01/30 07:21:30;;;;;;;20.23;3.97;;;16.60;68.40;;;;;;4175345;28;20170;-65
2023/01/30 07:24:11;;;;;;;15.15;3.50;;;16.50;69.60;;;;;;4180203;28;20048;-65
2023/01/30 07:26:53;;;;;;;22.50;4.03;;;16.50;70.00;;;;;;4175840;28;20106;-65
2023/01/30 07:29:35;;;;;;;16.10;3.60;;;16.50;69.00;;;;;;4175361;28;20071;-65
2023/01/30 07:32:18;;;;;;;17.77;3.45;;;16.50;68.70;;;;;;4174710;28;20056;-65
2023/01/30 07:34:59;;;;;;;16.65;3.72;;;16.50;68.70;;;;;;4175767;28;20450;-65
2023/01/30 07:37:40;;;;;;;22.60;3.88;;;16.40;68.90;;;;;;4175224;28;20052;-65
2023/01/30 07:40:22;;;;;;;20.88;4.78;;;16.40;69.10;;;;;;4186895;28;20118;-65
2023/01/30 07:43:06;;;;;;;;;;;16.40;69.10;;;;;;4188308;28;20388;-65
2023/01/30 07:45:48;;;;;;;19.20;3.25;;;16.40;69.10;;;;;;4191960;28;19927;-65
2023/01/30 07:48:29;;;;;;;15.10;4.05;;;16.40;69.10;;;;;;4189519;28;20055;-66
2023/01/30 07:51:09;;;;;;;23.13;4.30;;;16.30;69.40;;;;;;4192364;28;20051;-66
2023/01/30 07:53:50;;;;;;;23.30;3.97;;;16.30;70.20;;;;;;4177130;28;20060;-65
2023/01/30 07:56:31;;;;;;;21.17;5.32;;;16.40;69.10;;;;;;4175084;28;20055;-66
2023/01/30 07:59:14;;;;;;;21.02;3.95;;;16.30;67.80;;;;;;4176137;28;20562;-66
2023/01/30 08:01:55;;;;;;;16.60;3.67;;;16.40;68.10;;;;;;4191462;28;20052;-66
2023/01/30 08:04:37;;;;;;;18.38;4.07;;;16.40;67.70;;;;;;4191493;28;20506;-66
2023/01/30 08:07:18;;;;;;;21.02;3.67;;;16.40;67.20;;;;;;4191384;28;20158;-65
2023/01/30 08:09:59;;;;;;;20.50;4.20;;;16.40;66.90;;;;;;4190907;28;20047;-66
2023/01/30 08:12:41;;;;;;;14.15;3.97;;;16.40;66.50;;;;;;4183442;28;20091;-66
2023/01/30 08:15:23;;;;;;;28.88;3.83;;;16.40;66.30;;;;;;4178274;28;20117;-66
2023/01/30 08:18:06;;;;;;;19.77;4.00;;;16.40;66.40;;;;;;4175300;28;20553;-66
2023/01/30 08:20:47;;;;;;;22.05;3.65;;;16.40;66.40;;;;;;4175309;28;20063;-66
2023/01/30 08:23:28;;;;;;;16.67;4.43;;;16.40;66.20;;;;;;4174704;28;20064;-66
2023/01/30 08:26:09;;;;;;;12.07;3.43;;;16.30;66.00;;;;;;4180642;28;20103;-66
2023/01/30 08:28:50;;;;;;;18.27;3.70;;;16.30;65.90;;;;;;4182386;28;20097;-65
2023/01/30 08:31:32;;;;;;;;;;;16.30;65.90;;;;;;4192005;28;20060;-65
2023/01/30 08:34:13;;;;;;;20.30;4.43;;;16.20;65.90;;;;;;4193629;28;19977;-65
2023/01/30 08:36:54;;;;;;;14.57;3.72;;;16.10;66.00;;;;;;4193971;28;20055;-66
2023/01/30 08:39:35;;;;;;;17.88;4.05;;;16.10;66.30;;;;;;4177707;28;20052;-65
2023/01/30 08:42:16;;;;;;;17.77;4.10;;;16.10;66.40;;;;;;4194545;28;20074;-65
2023/01/30 08:44:57;;;;;;;19.30;3.90;;;16.10;66.20;;;;;;4194564;28;20044;-65
2023/01/30 08:47:40;;;;;;;15.52;3.80;;;16.10;66.20;;;;;;4177665;28;20056;-65
2023/01/30 08:50:20;;;;;;;20.42;4.25;;;16.10;66.30;;;;;;4193001;28;20052;-65
2023/01/30 08:53:05;;;;;;;22.70;4.15;;;16.20;65.80;;;;;;4194273;28;20055;-65
2023/01/30 08:55:46;;;;;;;12.93;3.30;;;16.20;65.50;;;;;;4194033;28;20055;-65
2023/01/30 08:58:27;;;;;;;14.70;3.97;;;16.20;65.70;;;;;;4184915;28;20056;-66
2023/01/30 09:10:54;;;;;;;12.30;2.58;;;16.20;65.10;;;;;;4828200;23;20941;-65
2023/01/30 09:13:42;;;;;;;12.40;3.58;;;16.10;65.60;;;;;;4047669;29;20068;-65
2023/01/30 09:16:23;;;;;;;14.65;3.55;;;16.00;65.50;;;;;;4049062;29;20072;-65
2023/01/30 09:19:04;;;;;;;14.00;3.50;;;15.90;65.60;;;;;;4033892;29;20590;-64
2023/01/30 09:21:45;;;;;;;19.50;4.45;;;15.90;64.70;;;;;;4033762;29;20104;-65
2023/01/30 09:24:26;;;;;;;22.80;4.45;;;15.80;65.70;;;;;;4033492;29;20416;-65
2023/01/30 09:27:08;;;;;;;18.67;4.65;;;15.70;66.40;;;;;;4033606;29;20104;-64
2023/01/30 09:29:50;;;;;;;19.42;4.75;;;15.70;66.80;;;;;;4038491;29;20048;-64
2023/01/30 09:32:31;;;;;;;13.30;3.72;;;15.70;66.60;;;;;;4049030;29;20167;-65
2023/01/30 09:35:12;;;;;;;18.15;4.25;;;15.80;66.30;;;;;;4049247;29;20059;-64
2023/01/30 09:37:54;;;;;;;19.27;3.70;;;15.80;66.20;;;;;;4049073;29;20108;-64
2023/01/30 09:40:38;;;;;;;;;;;15.80;66.00;;;;;;4048166;29;20063;-64
2023/01/30 09:43:43;;;;;;;14.70;3.70;;;15.80;66.30;;;;;;4048490;29;19930;-65
2023/01/30 09:46:34;;;;;;;17.42;4.10;;;15.80;65.70;;;;;;4048565;29;20211;-65
2023/01/30 09:49:28;;;;;;;14.52;3.13;;;15.70;65.50;;;;;;4047811;29;20424;-65
2023/01/30 09:52:19;;;;;;;21.23;4.78;;;15.70;65.90;;;;;;4033509;29;20404;-65
2023/01/30 09:55:03;;;;;;;18.52;4.07;;;15.70;65.90;;;;;;4033468;29;20055;-65
2023/01/30 09:57:46;;;;;;;18.25;4.38;;;15.70;65.80;;;;;;4033722;29;20067;-68
2023/01/30 10:00:32;;;;;;;21.33;5.72;;;15.70;65.60;;;;;;4043211;29;20064;-65
2023/01/30 10:03:17;;;;;;;21.23;3.92;;;15.70;65.60;;;;;;4033426;29;20103;-64
2023/01/30 10:06:04;;;;;;;22.80;4.40;;;15.70;65.70;;;;;;4035337;29;20184;-64
2023/01/30 10:08:52;;;;;;;19.75;3.97;;;15.60;65.70;;;;;;4048612;29;20185;-65
2023/01/30 10:11:47;;;;;;;19.92;3.63;;;15.60;65.90;;;;;;4053525;29;20140;-64
2023/01/30 10:14:52;;;;;;;16.42;3.33;;;15.60;65.70;;;;;;4063515;29;20582;-65
2023/01/30 10:17:49;;;;;;;18.40;3.60;;;15.70;65.60;;;;;;4063702;29;20086;-64
2023/01/30 10:20:40;;;;;;;18.45;3.85;;;15.60;65.60;;;;;;4063448;29;20204;-64
2023/01/30 10:23:36;;;;;;;20.67;5.10;;;15.60;65.30;;;;;;4063870;29;20063;-65
2023/01/30 10:26:20;;;;;;;24.90;4.90;;;15.60;65.40;;;;;;4051589;29;20054;-65
2023/01/30 10:29:05;;;;;;;20.67;4.25;;;15.60;65.70;;;;;;4064063;29;20055;-65
2023/01/30 10:31:50;;;;;;;17.85;4.05;;;15.60;65.70;;;;;;4047323;29;20083;-64
2023/01/30 10:34:34;;;;;;;14.43;2.95;;;15.50;65.00;;;;;;4047794;29;20056;-64
2023/01/30 10:37:21;;;;;;;9.02;2.58;;;15.50;65.20;;;;;;4047960;29;20779;-64
2023/01/30 10:40:07;;;;;;;6.63;1.77;;;15.50;64.70;;;;;;4059236;29;20059;-64
2023/01/30 10:42:56;;;;;;;10.60;1.88;;;15.60;65.30;;;;;;4061986;29;20142;-64
2023/01/30 10:45:48;;;;;;;10.45;1.98;;;15.60;65.30;;;;;;4062564;29;20054;-64
2023/01/30 10:48:50;;;;;;;5.27;1.20;;;15.60;65.30;;;;;;4063553;29;20689;-64
2023/01/30 10:51:41;;;;;;;3.78;1.45;;;15.60;65.20;;;;;;4062715;29;20295;-63
2023/01/30 10:54:32;;;;;;;6.47;1.83;;;15.60;64.60;;;;;;4063341;29;20071;-64
2023/01/30 10:57:19;;;;;;;9.40;1.83;;;15.50;63.40;;;;;;4061943;29;20078;-64
2023/01/30 11:00:04;;;;;;;5.45;1.38;;;15.50;65.10;;;;;;4062492;29;20418;-64
2023/01/30 11:02:56;;;;;;;5.72;1.40;;;15.40;64.90;;;;;;4063066;29;20185;-64
2023/01/30 11:05:44;;;;;;;4.53;1.27;;;15.40;65.30;;;;;;4062630;29;20975;-63
2023/01/30 11:08:27;;;;;;;7.28;1.42;;;15.40;65.70;;;;;;4061236;29;20077;-63
2023/01/30 11:11:32;;;;;;;7.13;2.03;;;15.30;66.20;;;;;;4062703;29;20047;-63
2023/01/30 11:14:14;;;;;;;8.57;1.90;;;15.40;66.40;;;;;;4062342;29;20135;-65
2023/01/30 11:16:56;;;;;;;10.88;2.20;;;15.50;66.50;;;;;;4062296;29;20188;-65
2023/01/30 11:19:37;;;;;;;10.50;2.47;;;15.60;66.10;;;;;;4050841;29;20184;-65
2023/01/30 11:22:21;;;;;;;16.65;3.83;;;15.70;66.50;;;;;;4062759;29;20083;-63
2023/01/30 11:25:06;;;;;;;13.13;2.70;;;15.70;65.80;;;;;;4063488;29;20059;-64
2023/01/30 11:27:55;;;;;;;10.85;3.40;;;15.70;65.00;;;;;;4062642;29;20418;-65
2023/01/30 11:30:37;;;;;;;10.38;2.80;;;15.60;64.40;;;;;;4062928;29;20047;-64
2023/01/30 11:33:20;;;;;;;;;;;15.60;65.40;;;;;;4063469;29;20054;-65
2023/01/30 11:36:04;;;;;;;16.58;3.75;;;15.60;65.50;;;;;;4062419;29;20485;-64
2023/01/30 11:38:57;;;;;;;10.38;2.90;;;15.50;66.40;;;;;;4062986;29;20100;-64
2023/01/30 11:41:41;;;;;;;18.83;3.38;;;15.40;64.40;;;;;;4062419;29;20063;-65
2023/01/30 11:44:27;;;;;;;16.67;3.72;;;15.30;66.00;;;;;;4040344;29;20562;-64
2023/01/30 11:47:13;;;;;;;15.77;3.78;;;15.30;66.60;;;;;;4062615;29;20127;-65
2023/01/30 11:50:00;;;;;;;12.35;3.20;;;15.20;64.70;;;;;;4062955;29;20063;-64
2023/01/30 11:52:44;;;;;;;15.00;2.72;;;15.10;66.20;;;;;;4062706;29;20402;-64
2023/01/30 11:55:25;;;;;;;17.73;3.47;;;15.00;66.80;;;;;;4062870;29;20055;-64
2023/01/30 11:58:09;;;;;;;12.55;3.22;;;15.00;66.40;;;;;;4062187;29;20494;-64
2023/01/30 12:00:51;;;;;;;16.75;3.88;;;14.90;66.60;;;;;;4062268;29;20091;-65
2023/01/30 12:03:33;;;;;;;18.45;3.83;;;14.90;66.50;;;;;;4062303;29;20184;-64
2023/01/30 12:06:29;;;;;;;14.88;3.45;;;14.80;64.90;;;;;;4061889;29;20144;-65
2023/01/30 12:09:31;;;;;;;13.90;3.20;;;14.80;64.30;;;;;;4063961;29;20111;-65
2023/01/30 12:12:29;;;;;;;15.32;3.17;;;14.70;65.00;;;;;;4065041;29;20071;-65
2023/01/30 12:15:20;;;;;;;11.98;3.20;;;14.70;65.80;;;;;;4049702;29;20104;-64
2023/01/30 12:18:07;;;;;;;12.07;3.92;;;14.60;68.20;;;;;;4056321;29;20091;-66
2023/01/30 12:20:56;;;;;;;17.98;3.42;;;14.60;68.00;;;;;;4065338;29;20058;-66
2023/01/30 12:23:40;;;;;;;15.43;3.53;;;14.60;68.20;;;;;;4065068;29;20090;-65
2023/01/30 12:26:26;;;;;;;15.50;3.70;;;14.60;67.80;;;;;;4065103;29;20098;-65
2023/01/30 12:29:21;;;;;;;20.95;3.97;;;14.50;66.80;;;;;;4065116;29;20055;-65
2023/01/30 12:32:07;;;;;;;16.65;3.95;;;14.50;65.40;;;;;;4064923;29;20059;-65
2023/01/30 12:34:49;;;;;;;10.70;2.95;;;14.50;68.00;;;;;;4062749;29;20066;-67
2023/01/30 12:37:49;;;;;;;15.10;3.33;;;14.50;70.20;;;;;;4049660;29;20056;-67
2023/01/30 12:40:45;;;;;;;17.65;4.00;;;14.50;70.00;;;;;;4058216;29;20196;-67
2023/01/30 12:43:41;;;;;;;17.83;3.90;;;14.50;71.00;;;;;;4066562;29;20054;-67
2023/01/30 12:46:40;;;;;;;18.55;3.97;;;14.50;70.60;;;;;;4064909;29;20059;-66
2023/01/30 12:49:42;;;;;;;21.50;5.53;;;14.40;69.30;;;;;;4064606;29;20076;-67
2023/01/30 12:52:45;;;;;;;17.27;3.72;;;14.40;69.50;;;;;;4062602;29;20059;-65
2023/01/30 12:55:39;;;;;;;17.27;3.60;;;14.40;70.00;;;;;;4079483;29;20061;-66
2023/01/30 12:58:24;;;;;;;16.95;4.32;;;14.40;70.90;;;;;;4064672;29;20063;-66
2023/01/30 13:01:23;;;;;;;20.48;4.30;;;14.40;70.70;;;;;;4060636;29;20074;-66
2023/01/30 13:04:14;;;;;;;19.05;4.53;;;14.40;70.50;;;;;;4074114;29;20510;-66
2023/01/30 13:07:10;;;;;;;21.77;4.47;;;14.40;72.00;;;;;;4067580;29;20059;-66
2023/01/30 13:10:02;;;;;;;22.25;3.78;;;14.40;71.10;;;;;;4048705;29;20055;-65
2023/01/30 13:13:03;;;;;;;23.80;4.13;;;14.40;70.50;;;;;;4048813;29;20403;-65
2023/01/30 13:15:51;;;;;;;18.27;4.35;;;14.30;70.30;;;;;;4051370;29;20079;-65
2023/01/30 13:18:38;;;;;;;15.75;3.90;;;14.30;71.40;;;;;;4063861;29;20079;-66
2023/01/30 13:21:23;;;;;;;22.65;4.68;;;14.30;71.70;;;;;;4061381;29;20129;-65
2023/01/30 13:24:19;;;;;;;23.52;4.82;;;14.30;71.80;;;;;;4054511;29;20160;-65
2023/01/30 13:27:06;;;;;;;14.27;3.35;;;14.30;70.80;;;;;;4063908;29;20059;-65
2023/01/30 13:29:48;;;;;;;18.38;4.15;;;14.30;72.10;;;;;;4064488;29;20070;-66
2023/01/30 13:32:36;;;;;;;19.52;4.15;;;14.20;72.80;;;;;;4051263;29;20059;-66
2023/01/30 13:35:21;;;;;;;24.20;5.07;;;14.20;72.40;;;;;;4054916;29;20063;-66
2023/01/30 13:38:04;;;;;;;15.52;4.40;;;14.10;71.60;;;;;;4064642;29;20083;-67
2023/01/30 13:40:47;;;;;;;15.07;3.38;;;14.10;71.70;;;;;;4063795;29;20054;-66
2023/01/30 13:43:35;;;;;;;27.13;4.72;;;14.20;72.20;;;;;;4064078;29;20099;-66
2023/01/30 13:46:22;;;;;;;23.98;4.50;;;14.30;73.70;;;;;;4064341;29;20047;-66
2023/01/30 13:49:11;;;;;;;23.88;4.03;;;14.30;73.40;;;;;;4068811;29;20071;-66
2023/01/30 13:51:58;;;;;;;21.90;4.57;;;14.40;72.60;;;;;;4048673;29;20511;-65
2023/01/30 13:54:53;;;;;;;33.13;10.40;;;14.40;72.60;;;;;;4048316;29;20411;-65
2023/01/30 13:57:44;;;;;;;20.70;3.97;;;14.50;72.70;;;;;;4048070;29;20051;-65
2023/01/30 14:00:34;;;;;;;20.85;5.38;;;14.60;72.70;;;;;;4048392;29;20115;-65
2023/01/30 14:03:27;;;;;;;33.33;7.57;;;14.70;71.70;;;;;;4054343;29;20055;-65
2023/01/30 14:06:14;;;;;;;27.30;5.45;;;14.70;71.50;;;;;;4073625;29;20164;-65
2023/01/30 14:08:58;;;;;;;25.92;6.30;;;14.70;72.10;;;;;;4068303;29;20087;-66
2023/01/30 14:11:47;;;;;;;25.23;5.65;;;14.70;72.40;;;;;;4063529;29;20058;-66
2023/01/30 14:14:35;;;;;;;22.85;4.63;;;14.70;71.80;;;;;;4063863;29;20063;-66
2023/01/30 14:17:17;;;;;;;29.58;8.60;;;14.70;72.10;;;;;;4064034;29;20059;-66
2023/01/30 14:20:01;;;;;;;29.30;5.60;;;14.70;72.20;;;;;;4063568;29;20195;-66
2023/01/30 14:22:52;;;;;;;25.83;5.30;;;14.70;72.20;;;;;;4063634;29;20407;-65
2023/01/30 14:25:45;;;;;;;29.90;6.53;;;14.60;72.10;;;;;;4063628;29;20108;-63
2023/01/30 14:28:50;;;;;;;25.05;5.43;;;14.60;71.80;;;;;;4062988;29;20063;-64
2023/01/30 14:31:53;;;;;;;23.10;5.25;;;14.60;71.80;;;;;;4046979;29;20083;-64